Time;durP1;ratioP1;P1;durP2;ratioP2;P2;SDS_P1;SDS_P2;PMS_P1;PMS_P2;Temp;Humidity;BMP_temperature;BMP_pressure;BME280_temperature;BME280_humidity;BME280_pressure;Samples;Min_cycle;Max_cycle;Signal;HPM_P1;HPM_P2
2021/10/24 00:01:25;;;;;;;13.30;9.23;;;4.80;99.90;;;;;;5028950;28;20237;-53
2021/10/24 00:03:52;;;;;;;15.52;8.68;;;4.70;99.90;;;;;;5020358;28;20198;-50
2021/10/24 00:06:19;;;;;;;16.33;7.40;;;4.80;99.90;;;;;;5018860;28;20213;-50
2021/10/24 00:08:46;;;;;;;11.80;7.43;;;4.80;99.90;;;;;;5022810;28;20292;-48
2021/10/24 00:11:14;;;;;;;11.75;7.22;;;4.70;99.90;;;;;;5024413;28;20206;-50
2021/10/24 00:13:42;;;;;;;11.20;7.35;;;4.70;99.90;;;;;;5021033;28;20317;-50
2021/10/24 00:16:09;;;;;;;15.52;8.10;;;4.70;99.90;;;;;;5023464;28;20268;-52
2021/10/24 00:18:37;;;;;;;17.08;7.60;;;4.70;99.90;;;;;;5023423;28;20258;-53
2021/10/24 00:21:04;;;;;;;19.02;9.18;;;4.80;99.90;;;;;;5019985;28;20203;-48
2021/10/24 00:23:32;;;;;;;11.93;8.52;;;4.80;99.90;;;;;;5023902;28;20254;-46
2021/10/24 00:26:00;;;;;;;11.50;8.02;;;4.80;99.90;;;;;;5019156;28;20237;-46
2021/10/24 00:28:27;;;;;;;12.43;6.88;;;4.70;99.90;;;;;;5015418;28;20451;-48
2021/10/24 00:30:54;;;;;;;14.52;7.57;;;4.70;99.90;;;;;;5024815;28;20206;-44
2021/10/24 00:33:22;;;;;;;8.30;6.85;;;4.70;99.90;;;;;;5023556;28;20398;-46
2021/10/24 00:35:49;;;;;;;16.23;8.13;;;4.60;99.90;;;;;;5020905;28;20508;-53
2021/10/24 00:38:17;;;;;;;11.50;9.38;;;4.50;99.90;;;;;;5017468;28;20221;-49
2021/10/24 00:40:44;;;;;;;17.42;8.95;;;4.50;99.90;;;;;;5020193;28;20394;-53
2021/10/24 00:43:12;;;;;;;12.55;8.05;;;4.60;99.90;;;;;;5019567;28;20425;-46
2021/10/24 00:45:39;;;;;;;11.70;8.73;;;4.70;99.90;;;;;;5016858;28;20245;-48
2021/10/24 00:48:06;;;;;;;14.15;7.72;;;4.70;99.90;;;;;;5018142;28;20245;-51
2021/10/24 00:50:35;;;;;;;13.15;7.80;;;4.70;99.90;;;;;;5020174;28;20206;-51
2021/10/24 00:53:04;;;;;;;10.02;7.15;;;4.60;99.90;;;;;;5020380;28;20198;-47
2021/10/24 00:55:31;;;;;;;19.63;8.27;;;4.60;99.90;;;;;;5027810;28;20206;-51
2021/10/24 00:58:00;;;;;;;8.60;7.75;;;4.60;99.90;;;;;;5023655;28;20226;-49
2021/10/24 01:00:27;;;;;;;15.43;9.00;;;4.60;99.90;;;;;;5020166;28;20238;-48
2021/10/24 01:02:55;;;;;;;15.52;7.70;;;4.60;99.90;;;;;;5017851;28;20199;-49
2021/10/24 01:05:22;;;;;;;12.50;7.55;;;4.60;99.90;;;;;;5020373;28;20204;-50
2021/10/24 01:07:49;;;;;;;18.75;11.93;;;4.50;99.90;;;;;;5023071;28;20203;-51
2021/10/24 01:10:18;;;;;;;12.48;8.88;;;4.50;99.90;;;;;;5019801;28;20504;-50
2021/10/24 01:12:48;;;;;;;11.23;8.02;;;4.40;99.90;;;;;;5019271;28;20443;-49
2021/10/24 01:15:16;;;;;;;25.45;8.15;;;4.30;99.90;;;;;;5019984;28;20396;-50
2021/10/24 01:17:44;;;;;;;13.98;8.98;;;4.20;99.90;;;;;;5019227;28;20253;-50
2021/10/24 01:20:24;;;;;;;13.77;8.50;;;4.20;99.90;;;;;;5019607;28;20426;-51
2021/10/24 01:22:52;;;;;;;20.63;8.32;;;4.20;99.90;;;;;;5019553;28;20206;-52
2021/10/24 01:25:19;;;;;;;14.00;8.07;;;4.30;99.90;;;;;;5019651;28;20297;-49
2021/10/24 01:27:48;;;;;;;8.52;7.57;;;4.20;99.90;;;;;;5024683;28;20205;-54
2021/10/24 01:30:15;;;;;;;11.88;7.32;;;4.20;99.90;;;;;;5021279;28;20245;-52
2021/10/24 01:32:43;;;;;;;15.68;8.88;;;4.20;99.90;;;;;;5024215;28;20213;-48
2021/10/24 01:35:10;;;;;;;19.02;9.25;;;4.20;99.90;;;;;;5020807;28;20630;-50
2021/10/24 01:37:42;;;;;;;13.40;7.90;;;4.20;99.90;;;;;;5019538;28;20245;-53
2021/10/24 01:40:12;;;;;;;11.90;7.65;;;4.20;99.90;;;;;;5025379;28;20205;-50
2021/10/24 01:42:56;;;;;;;20.23;10.00;;;4.20;99.90;;;;;;5015152;28;20202;-50
2021/10/24 01:45:26;;;;;;;11.00;8.68;;;4.00;99.90;;;;;;5019568;28;20243;-52
2021/10/24 01:47:53;;;;;;;14.77;9.10;;;3.90;99.90;;;;;;5016378;28;20551;-50
2021/10/24 01:50:21;;;;;;;15.20;8.77;;;4.00;99.90;;;;;;5019522;28;20283;-47
2021/10/24 01:52:48;;;;;;;12.98;8.73;;;4.00;99.90;;;;;;5019117;28;20244;-51
2021/10/24 01:55:16;;;;;;;13.80;8.20;;;4.00;99.90;;;;;;5019963;28;20463;-46
2021/10/24 01:57:45;;;;;;;13.85;9.90;;;4.00;99.90;;;;;;5016114;28;20203;-49
2021/10/24 02:00:15;;;;;;;14.10;9.10;;;4.10;99.90;;;;;;5018524;28;20212;-47
2021/10/24 02:02:42;;;;;;;15.27;9.50;;;4.10;99.90;;;;;;5018658;28;20247;-49
2021/10/24 02:05:09;;;;;;;15.70;10.80;;;4.10;99.90;;;;;;5019550;28;20241;-48
2021/10/24 02:07:36;;;;;;;13.32;9.65;;;4.10;99.90;;;;;;5019086;28;20396;-48
2021/10/24 02:10:06;;;;;;;20.98;11.35;;;4.10;99.90;;;;;;5014092;28;20353;-52
2021/10/24 02:12:34;;;;;;;14.98;10.45;;;4.00;99.90;;;;;;5019003;28;20202;-53
2021/10/24 02:15:04;;;;;;;16.95;9.32;;;4.00;99.90;;;;;;5020615;28;20440;-51
2021/10/24 02:17:31;;;;;;;17.75;10.45;;;4.00;99.90;;;;;;5019954;28;20247;-49
2021/10/24 02:19:58;;;;;;;13.70;9.55;;;4.00;99.90;;;;;;5019476;28;20574;-52
2021/10/24 02:22:25;;;;;;;12.73;9.65;;;4.10;99.90;;;;;;5019342;28;20566;-50
2021/10/24 02:24:53;;;;;;;12.52;9.95;;;4.00;99.90;;;;;;5023185;28;20509;-49
2021/10/24 02:27:20;;;;;;;13.38;9.50;;;4.10;99.90;;;;;;5023368;28;20340;-49
2021/10/24 02:29:48;;;;;;;10.80;8.15;;;4.10;99.90;;;;;;5024373;28;20359;-50
2021/10/24 02:32:15;;;;;;;15.23;8.90;;;4.00;99.90;;;;;;5023430;28;20313;-50
2021/10/24 02:34:42;;;;;;;14.00;8.40;;;4.00;99.90;;;;;;5022877;28;20271;-47
2021/10/24 02:37:10;;;;;;;10.43;8.93;;;3.90;99.90;;;;;;5023926;28;20259;-49
2021/10/24 02:39:38;;;;;;;21.33;10.32;;;3.90;99.90;;;;;;5020994;28;20457;-52
2021/10/24 02:42:06;;;;;;;34.72;8.63;;;3.90;99.90;;;;;;5019983;28;20436;-47
2021/10/24 02:44:34;;;;;;;14.73;8.73;;;3.90;99.90;;;;;;5022751;28;20229;-47
2021/10/24 02:47:01;;;;;;;15.57;7.32;;;3.90;99.90;;;;;;5027059;28;20255;-47
2021/10/24 02:49:29;;;;;;;15.35;8.65;;;3.90;99.90;;;;;;5022206;28;20540;-44
2021/10/24 02:51:56;;;;;;;13.00;7.95;;;3.90;99.90;;;;;;5022917;28;20367;-51
2021/10/24 02:54:24;;;;;;;15.43;8.40;;;3.80;99.90;;;;;;5022665;28;20508;-47
2021/10/24 02:56:52;;;;;;;12.90;9.32;;;3.80;99.90;;;;;;5022916;28;20224;-49
2021/10/24 02:59:20;;;;;;;21.95;9.40;;;3.80;99.90;;;;;;5023472;28;20293;-48
2021/10/24 03:01:48;;;;;;;19.38;8.82;;;3.80;99.90;;;;;;5022866;28;20263;-47
2021/10/24 03:04:16;;;;;;;16.00;9.35;;;3.80;99.90;;;;;;5023340;28;20209;-47
2021/10/24 03:06:43;;;;;;;14.88;10.70;;;3.80;99.90;;;;;;5023438;28;20205;-51
2021/10/24 03:09:10;;;;;;;11.05;8.65;;;3.80;99.90;;;;;;5022701;28;20233;-48
2021/10/24 03:11:38;;;;;;;11.13;9.57;;;3.80;99.90;;;;;;5022678;28;20255;-51
2021/10/24 03:14:05;;;;;;;13.07;9.85;;;3.80;99.90;;;;;;5022123;28;20252;-47
2021/10/24 03:16:36;;;;;;;14.05;9.02;;;3.80;99.90;;;;;;5022249;28;20240;-50
2021/10/24 03:19:04;;;;;;;14.80;9.32;;;3.80;99.90;;;;;;5022350;28;20243;-52
2021/10/24 03:21:32;;;;;;;13.07;9.43;;;3.80;99.90;;;;;;5028743;28;20240;-49
2021/10/24 03:24:09;;;;;;;19.50;9.25;;;3.80;99.90;;;;;;5022446;28;20500;-50
2021/10/24 03:26:37;;;;;;;14.23;9.55;;;3.70;99.90;;;;;;5021203;28;20239;-54
2021/10/24 03:29:04;;;;;;;12.85;9.38;;;3.70;99.90;;;;;;5022426;28;20387;-42
2021/10/24 03:31:31;;;;;;;12.93;10.13;;;3.70;99.90;;;;;;5022022;28;20205;-52
2021/10/24 03:33:58;;;;;;;13.35;9.43;;;3.80;99.90;;;;;;5021637;28;20209;-46
2021/10/24 03:36:26;;;;;;;12.00;8.10;;;3.70;99.90;;;;;;5024648;28;20396;-51
2021/10/24 03:38:53;;;;;;;11.23;8.38;;;3.70;99.90;;;;;;5021445;28;20255;-47
2021/10/24 03:41:20;;;;;;;11.77;9.02;;;3.70;99.90;;;;;;5022197;28;20395;-47
2021/10/24 03:43:47;;;;;;;13.27;10.07;;;3.70;99.90;;;;;;5021500;28;20205;-47
2021/10/24 03:46:15;;;;;;;16.85;9.93;;;3.70;99.90;;;;;;5024113;28;20248;-48
2021/10/24 03:48:42;;;;;;;14.57;9.60;;;3.70;99.90;;;;;;5021031;28;20225;-53
2021/10/24 03:51:09;;;;;;;14.98;10.05;;;3.70;99.90;;;;;;5022312;28;20279;-49
2021/10/24 03:53:36;;;;;;;16.00;8.52;;;3.80;99.90;;;;;;5023137;28;20234;-47
2021/10/24 03:56:04;;;;;;;15.52;9.60;;;3.70;99.90;;;;;;5021366;28;20389;-48
2021/10/24 03:58:31;;;;;;;13.15;9.77;;;3.70;99.90;;;;;;5022483;28;20221;-49
2021/10/24 04:00:59;;;;;;;12.57;8.88;;;3.70;99.90;;;;;;5024243;28;20213;-49
2021/10/24 04:03:26;;;;;;;13.93;9.25;;;3.70;99.90;;;;;;5025502;28;20527;-54
2021/10/24 04:05:53;;;;;;;13.18;9.88;;;3.70;99.90;;;;;;5024984;28;20209;-48
2021/10/24 04:08:20;;;;;;;10.45;9.38;;;3.60;99.90;;;;;;5023753;28;20228;-48
2021/10/24 04:10:47;;;;;;;13.00;8.73;;;3.60;99.90;;;;;;5025524;28;20225;-49
2021/10/24 04:13:14;;;;;;;16.00;8.57;;;3.50;99.90;;;;;;5021329;28;20508;-46
2021/10/24 04:15:42;;;;;;;12.07;8.65;;;3.50;99.90;;;;;;5021229;28;20324;-52
2021/10/24 04:18:09;;;;;;;8.93;8.13;;;3.50;99.90;;;;;;5023999;28;20539;-44
2021/10/24 04:20:36;;;;;;;11.20;8.73;;;3.50;99.90;;;;;;5021109;28;20508;-48
2021/10/24 04:23:04;;;;;;;10.48;8.55;;;3.50;99.90;;;;;;5021061;28;20413;-48
2021/10/24 04:25:31;;;;;;;8.45;7.18;;;3.50;99.90;;;;;;5026222;28;20205;-51
2021/10/24 04:27:59;;;;;;;22.85;10.85;;;3.50;99.90;;;;;;5022710;28;20266;-47
2021/10/24 04:30:26;;;;;;;13.95;9.30;;;3.50;99.90;;;;;;5020855;28;20228;-54
2021/10/24 04:32:54;;;;;;;12.05;10.00;;;3.50;99.90;;;;;;5020319;28;20200;-57
2021/10/24 04:35:21;;;;;;;23.58;9.63;;;3.50;99.90;;;;;;5024396;28;20205;-50
2021/10/24 04:37:49;;;;;;;13.48;8.82;;;3.40;99.90;;;;;;5020905;28;20247;-48
2021/10/24 04:40:16;;;;;;;22.35;9.00;;;3.40;99.90;;;;;;5021267;28;20213;-47
2021/10/24 04:42:44;;;;;;;19.23;10.95;;;3.40;99.90;;;;;;5026137;28;20216;-52
2021/10/24 04:45:12;;;;;;;16.83;10.45;;;3.40;99.90;;;;;;5023083;28;20254;-52
2021/10/24 04:47:39;;;;;;;13.27;10.23;;;3.40;99.90;;;;;;5020870;28;20358;-51
2021/10/24 04:50:08;;;;;;;13.30;9.07;;;3.40;99.90;;;;;;5028457;28;20420;-47
2021/10/24 04:52:37;;;;;;;15.07;9.68;;;3.40;99.90;;;;;;5020586;28;20421;-52
2021/10/24 04:55:07;;;;;;;18.70;10.35;;;3.40;99.90;;;;;;5020490;28;20201;-53
2021/10/24 04:57:36;;;;;;;20.15;9.40;;;3.40;99.90;;;;;;5020334;28;20239;-54
2021/10/24 05:00:07;;;;;;;16.02;10.27;;;3.40;99.90;;;;;;5018908;28;20403;-48
2021/10/24 05:02:35;;;;;;;14.32;10.50;;;3.40;99.90;;;;;;5019762;28;20259;-54
2021/10/24 05:05:04;;;;;;;11.45;8.82;;;3.40;99.90;;;;;;5027732;28;20258;-53
2021/10/24 05:07:31;;;;;;;13.00;8.93;;;3.40;99.90;;;;;;5013733;28;20239;-54
2021/10/24 05:09:58;;;;;;;18.48;10.23;;;3.40;99.90;;;;;;5025474;28;20232;-54
2021/10/24 05:12:26;;;;;;;14.32;10.80;;;3.40;99.90;;;;;;5019944;28;20200;-50
2021/10/24 05:14:53;;;;;;;14.43;11.38;;;3.40;99.90;;;;;;5026912;28;20204;-49
2021/10/24 05:17:20;;;;;;;17.80;12.20;;;3.40;99.90;;;;;;5021448;28;20205;-48
2021/10/24 05:19:47;;;;;;;18.42;10.73;;;3.40;99.90;;;;;;5019510;28;20589;-51
2021/10/24 05:22:15;;;;;;;19.75;11.45;;;3.30;99.90;;;;;;5020609;28;20235;-48
2021/10/24 05:24:42;;;;;;;12.63;11.32;;;3.30;99.90;;;;;;5019587;28;20200;-51
2021/10/24 05:27:09;;;;;;;14.10;9.88;;;3.30;99.90;;;;;;5013190;28;20202;-51
2021/10/24 05:29:36;;;;;;;18.25;11.43;;;3.20;99.90;;;;;;5019922;28;20228;-44
2021/10/24 05:32:03;;;;;;;16.25;14.20;;;3.20;99.90;;;;;;5019723;28;20236;-51
2021/10/24 05:34:31;;;;;;;13.70;11.38;;;3.20;99.90;;;;;;5020299;28;20213;-50
2021/10/24 05:36:58;;;;;;;24.20;12.88;;;3.20;99.90;;;;;;5019945;28;20255;-51
2021/10/24 05:39:25;;;;;;;14.65;10.73;;;3.20;99.90;;;;;;5019575;28;20221;-56
2021/10/24 05:41:55;;;;;;;20.58;11.20;;;3.20;99.90;;;;;;5019392;28;20411;-53
2021/10/24 05:44:23;;;;;;;14.95;11.25;;;3.20;99.90;;;;;;5019782;28;20526;-49
2021/10/24 05:46:52;;;;;;;14.45;11.60;;;3.30;99.90;;;;;;5019135;28;20205;-52
2021/10/24 05:49:21;;;;;;;21.02;14.63;;;3.30;99.90;;;;;;5019400;28;20222;-54
2021/10/24 05:51:48;;;;;;;16.38;14.52;;;3.30;99.90;;;;;;5018972;28;20279;-50
2021/10/24 05:54:16;;;;;;;18.73;15.20;;;3.30;99.90;;;;;;5019804;28;20247;-48
2021/10/24 05:56:43;;;;;;;14.25;12.75;;;3.40;99.90;;;;;;5021056;28;20213;-49
2021/10/24 05:59:10;;;;;;;24.83;13.07;;;3.50;99.90;;;;;;5020531;28;20233;-52
2021/10/24 06:01:37;;;;;;;18.48;14.38;;;3.50;99.90;;;;;;5019258;28;20227;-51
2021/10/24 06:04:05;;;;;;;19.95;13.13;;;3.60;99.90;;;;;;5012152;28;20252;-52
2021/10/24 06:06:32;;;;;;;16.20;13.13;;;3.70;99.90;;;;;;5023997;28;20236;-49
2021/10/24 06:09:01;;;;;;;21.52;13.60;;;3.70;99.90;;;;;;5022716;28;20431;-48
2021/10/24 06:11:34;;;;;;;17.45;12.57;;;3.80;99.90;;;;;;5019537;28;20363;-50
2021/10/24 06:14:02;;;;;;;17.05;12.35;;;3.90;99.90;;;;;;5019109;28;20201;-52
2021/10/24 06:16:29;;;;;;;17.02;12.88;;;3.90;99.90;;;;;;5017869;28;20263;-49
2021/10/24 06:18:56;;;;;;;15.93;12.60;;;4.10;99.90;;;;;;5026138;28;20423;-47
2021/10/24 06:21:23;;;;;;;19.27;15.52;;;4.10;99.90;;;;;;5023878;28;20232;-50
2021/10/24 06:23:50;;;;;;;16.98;13.25;;;4.20;99.90;;;;;;5023334;28;20213;-47
2021/10/24 06:26:18;;;;;;;29.52;15.23;;;4.30;99.90;;;;;;5028264;28;20213;-49
2021/10/24 06:28:45;;;;;;;20.63;14.75;;;4.40;99.90;;;;;;5024694;28;20271;-47
2021/10/24 06:31:12;;;;;;;19.23;11.60;;;4.50;99.90;;;;;;5022471;28;20273;-50
2021/10/24 06:33:39;;;;;;;24.23;13.93;;;4.60;99.90;;;;;;5022903;28;20218;-51
2021/10/24 06:36:07;;;;;;;26.30;16.00;;;4.60;99.90;;;;;;5023203;28;20197;-48
2021/10/24 06:38:34;;;;;;;22.70;15.63;;;4.80;99.90;;;;;;5022970;28;20537;-52
2021/10/24 06:41:02;;;;;;;33.47;15.70;;;4.90;99.90;;;;;;5022599;28;20206;-50
2021/10/24 06:43:29;;;;;;;24.15;15.77;;;5.10;99.90;;;;;;5022856;28;20274;-47
2021/10/24 06:45:56;;;;;;;29.77;15.55;;;5.20;99.90;;;;;;5020805;28;20248;-52
2021/10/24 06:48:23;;;;;;;26.08;17.92;;;5.40;99.90;;;;;;5027289;28;20444;-51
2021/10/24 06:50:51;;;;;;;21.42;14.75;;;5.20;99.90;;;;;;5023493;28;20231;-55
2021/10/24 06:53:18;;;;;;;24.17;16.08;;;5.20;99.90;;;;;;5022612;28;20568;-51
2021/10/24 06:55:45;;;;;;;21.45;14.77;;;5.40;99.90;;;;;;5023218;28;20203;-54
2021/10/24 06:58:13;;;;;;;23.95;15.25;;;5.70;99.90;;;;;;5022104;28;20295;-47
2021/10/24 07:00:42;;;;;;;23.42;15.55;;;6.00;99.90;;;;;;5019104;28;20204;-48
2021/10/24 07:03:10;;;;;;;30.52;16.08;;;6.10;99.90;;;;;;5023915;28;20415;-49
2021/10/24 07:05:37;;;;;;;27.33;18.05;;;6.40;99.90;;;;;;5028439;28;20533;-48
2021/10/24 07:08:06;;;;;;;27.90;17.52;;;6.70;99.90;;;;;;5022926;28;20221;-49
2021/10/24 07:10:35;;;;;;;21.02;15.55;;;6.80;99.90;;;;;;5016678;28;20221;-48
2021/10/24 07:13:02;;;;;;;21.52;14.30;;;7.10;99.90;;;;;;5026026;28;20237;-48
2021/10/24 07:15:30;;;;;;;15.15;10.75;;;7.50;99.90;;;;;;5022563;28;20207;-51
2021/10/24 07:17:57;;;;;;;12.30;10.20;;;8.30;99.90;;;;;;5018459;28;20256;-51
2021/10/24 07:20:24;;;;;;;14.15;9.13;;;8.70;99.90;;;;;;5021842;28;20204;-50
2021/10/24 07:22:51;;;;;;;12.90;9.18;;;9.20;99.90;;;;;;5022122;28;20500;-49
2021/10/24 07:25:19;;;;;;;9.50;7.50;;;10.20;99.90;;;;;;5018896;28;20225;-51
2021/10/24 07:27:46;;;;;;;9.68;8.00;;;11.30;99.90;;;;;;5021117;28;20404;-50
2021/10/24 07:30:14;;;;;;;13.43;8.20;;;12.60;99.90;;;;;;5023481;28;20556;-45
2021/10/24 07:32:41;;;;;;;9.63;8.40;;;13.90;99.90;;;;;;5022951;28;20201;-48
2021/10/24 07:35:09;;;;;;;9.48;6.60;;;14.70;99.90;;;;;;5023469;28;20512;-50
2021/10/24 07:37:38;;;;;;;13.02;9.18;;;15.00;99.90;;;;;;5022088;28;20197;-47
2021/10/24 07:40:08;;;;;;;15.88;9.07;;;15.70;99.90;;;;;;5021415;28;20491;-52
2021/10/24 07:42:37;;;;;;;12.00;7.45;;;16.10;99.90;;;;;;5021139;28;20213;-48
2021/10/24 07:45:05;;;;;;;9.80;7.33;;;16.80;99.90;;;;;;5025544;28;20496;-47
2021/10/24 07:47:33;;;;;;;15.50;10.53;;;17.60;99.90;;;;;;5023495;28;20731;-52
2021/10/24 07:50:06;;;;;;;9.67;8.10;;;17.80;99.90;;;;;;5009400;28;20431;-49
2021/10/24 07:52:34;;;;;;;13.53;9.00;;;18.10;99.90;;;;;;5015892;28;20728;-50
2021/10/24 07:55:03;;;;;;;12.23;8.83;;;18.10;99.90;;;;;;5025493;28;20565;-47
2021/10/24 07:57:30;;;;;;;12.40;10.07;;;18.00;99.90;;;;;;5020562;28;20411;-49
2021/10/24 07:59:57;;;;;;;13.07;9.20;;;18.10;99.90;;;;;;5020924;28;20693;-51
2021/10/24 08:02:25;;;;;;;11.87;10.20;;;17.90;99.90;;;;;;5027156;28;20414;-48
2021/10/24 08:04:52;;;;;;;13.40;8.60;;;17.70;99.90;;;;;;5029093;28;20416;-48
2021/10/24 08:07:19;;;;;;;11.17;8.23;;;16.90;99.90;;;;;;5012068;28;20483;-50
2021/10/24 08:09:46;;;;;;;11.20;8.13;;;16.90;99.90;;;;;;5027962;28;20472;-50
2021/10/24 08:12:14;;;;;;;7.50;6.80;;;17.50;99.90;;;;;;5021895;28;20465;-48
2021/10/24 08:14:41;;;;;;;9.17;6.03;;;18.40;99.20;;;;;;5021270;28;20412;-50
2021/10/24 08:17:08;;;;;;;8.60;7.33;;;18.60;97.50;;;;;;5011893;28;20464;-42
2021/10/24 08:19:36;;;;;;;9.67;7.13;;;18.80;97.10;;;;;;5019442;28;20450;-55
2021/10/24 08:22:04;;;;;;;13.73;9.53;;;19.50;97.10;;;;;;5029268;28;20809;-49
2021/10/24 08:24:31;;;;;;;7.17;5.90;;;20.10;94.80;;;;;;5022559;28;20435;-49
2021/10/24 08:26:58;;;;;;;5.60;4.97;;;20.10;94.40;;;;;;5020546;28;20462;-50
2021/10/24 08:29:26;;;;;;;8.90;6.83;;;20.10;95.20;;;;;;5022648;28;20470;-51
2021/10/24 08:31:54;;;;;;;13.57;6.13;;;20.00;95.70;;;;;;5017070;28;20541;-49
2021/10/24 08:34:23;;;;;;;7.17;6.07;;;20.20;95.00;;;;;;5015724;28;20492;-48
2021/10/24 08:36:50;;;;;;;9.80;5.23;;;20.40;94.90;;;;;;5021489;28;20439;-48
2021/10/24 08:39:17;;;;;;;8.07;5.77;;;19.80;93.90;;;;;;5020890;28;20476;-53
2021/10/24 08:41:48;;;;;;;10.80;7.40;;;18.50;95.30;;;;;;5022469;28;20459;-55
2021/10/24 08:44:16;;;;;;;7.83;6.20;;;18.10;96.70;;;;;;5017108;28;20475;-51
2021/10/24 08:46:44;;;;;;;10.70;7.23;;;17.90;97.50;;;;;;5021364;28;20413;-52
2021/10/24 08:49:12;;;;;;;7.03;5.57;;;17.80;97.60;;;;;;5019422;28;20454;-48
2021/10/24 08:51:40;;;;;;;8.67;5.40;;;17.60;97.90;;;;;;5021871;28;20715;-48
2021/10/24 08:54:08;;;;;;;7.40;6.30;;;17.00;98.70;;;;;;5020632;28;20530;-48
2021/10/24 08:56:36;;;;;;;7.90;6.00;;;17.10;98.60;;;;;;5014005;28;20797;-50
2021/10/24 08:59:05;;;;;;;11.57;6.32;;;16.40;99.50;;;;;;5018880;28;20434;-47
2021/10/24 09:01:33;;;;;;;6.95;4.90;;;15.80;99.90;;;;;;5020251;28;20264;-49
2021/10/24 09:04:09;;;;;;;5.90;5.10;;;14.80;99.90;;;;;;5029144;28;20216;-52
2021/10/24 09:06:47;;;;;;;9.45;5.18;;;14.30;99.90;;;;;;5020752;28;20243;-48
2021/10/24 09:09:31;;;;;;;5.03;4.57;;;13.40;99.90;;;;;;5027602;28;20555;-47
2021/10/24 09:12:04;;;;;;;4.82;4.07;;;12.80;99.90;;;;;;5019675;28;20271;-49
2021/10/24 09:14:36;;;;;;;5.53;5.00;;;12.70;99.90;;;;;;5018200;28;20205;-53
2021/10/24 09:17:07;;;;;;;3.47;3.25;;;12.70;99.90;;;;;;5018260;28;20514;-49
2021/10/24 09:19:39;;;;;;;5.20;3.60;;;12.30;99.90;;;;;;5027044;28;20231;-51
2021/10/24 09:22:22;;;;;;;5.43;3.10;;;12.00;99.90;;;;;;5026603;28;20441;-50
2021/10/24 09:25:14;;;;;;;6.97;4.07;;;12.00;99.90;;;;;;5027218;28;20200;-53
2021/10/24 09:28:00;;;;;;;8.95;4.35;;;11.90;99.90;;;;;;5014599;28;20310;-48
2021/10/24 09:30:34;;;;;;;11.52;3.55;;;11.70;99.90;;;;;;5025260;28;20434;-49
2021/10/24 09:33:11;;;;;;;6.43;3.20;;;11.40;99.90;;;;;;5025341;28;20275;-45
2021/10/24 09:35:41;;;;;;;5.85;4.68;;;11.30;99.90;;;;;;5025676;28;20200;-51
2021/10/24 09:38:20;;;;;;;3.75;3.17;;;11.20;99.90;;;;;;5022202;28;20220;-50
2021/10/24 09:40:54;;;;;;;11.85;3.78;;;11.20;99.90;;;;;;5017344;28;20465;-53
2021/10/24 09:43:28;;;;;;;14.90;7.03;;;11.20;99.90;;;;;;5020244;28;20259;-51
2021/10/24 09:45:57;;;;;;;6.47;4.68;;;11.40;99.90;;;;;;5019573;28;20202;-47
2021/10/24 09:48:27;;;;;;;16.48;5.95;;;11.40;99.90;;;;;;5005886;28;20223;-50
2021/10/24 09:50:56;;;;;;;23.70;10.50;;;11.40;99.90;;;;;;5002814;28;20223;-53
2021/10/24 09:53:26;;;;;;;9.65;3.28;;;11.40;99.90;;;;;;5025260;28;20220;-46
2021/10/24 09:55:53;;;;;;;7.18;4.80;;;11.60;99.90;;;;;;5023314;28;20506;-47
2021/10/24 09:58:22;;;;;;;6.25;3.28;;;11.80;99.90;;;;;;5019210;28;20256;-49
2021/10/24 10:00:50;;;;;;;11.20;5.00;;;11.90;99.90;;;;;;5015149;28;20519;-47
2021/10/24 10:03:27;;;;;;;7.82;3.17;;;12.00;99.90;;;;;;5007704;28;20254;-51
2021/10/24 10:05:57;;;;;;;8.25;3.65;;;11.90;99.90;;;;;;5004604;28;20212;-46
2021/10/24 10:08:45;;;;;;;6.47;3.30;;;11.90;99.90;;;;;;5001804;28;20419;-48
2021/10/24 10:11:50;;;;;;;9.88;4.40;;;11.60;99.90;;;;;;5002431;28;21072;-47
2021/10/24 10:14:33;;;;;;;5.05;2.95;;;11.50;99.90;;;;;;4990115;28;20207;-49
2021/10/24 10:17:05;;;;;;;7.95;2.95;;;11.50;99.90;;;;;;5016198;28;20272;-48
2021/10/24 10:19:34;;;;;;;10.15;3.45;;;11.40;99.90;;;;;;5008183;28;20304;-60
2021/10/24 10:22:26;;;;;;;3.28;2.58;;;11.40;99.90;;;;;;5004944;28;20208;-52
2021/10/24 10:25:03;;;;;;;4.82;2.88;;;11.50;99.90;;;;;;5020413;28;20243;-46
2021/10/24 10:27:36;;;;;;;3.78;2.78;;;11.60;99.90;;;;;;5013987;28;20203;-47
2021/10/24 10:30:05;;;;;;;7.47;3.90;;;11.70;99.90;;;;;;5022776;28;20210;-49
2021/10/24 10:32:39;;;;;;;3.08;2.78;;;11.60;99.90;;;;;;5024051;28;20224;-48
2021/10/24 10:35:12;;;;;;;3.33;2.70;;;11.70;99.90;;;;;;5036886;28;20198;-51
2021/10/24 10:37:53;;;;;;;9.70;3.55;;;11.70;99.90;;;;;;5018695;28;20529;-47
2021/10/24 10:40:55;;;;;;;2.38;2.17;;;11.50;99.90;;;;;;5022495;28;20211;-45
2021/10/24 10:43:23;;;;;;;3.17;2.10;;;11.50;99.90;;;;;;5015088;28;20246;-51
2021/10/24 10:45:58;;;;;;;2.15;1.95;;;11.60;99.90;;;;;;5010601;28;20208;-53
2021/10/24 10:48:29;;;;;;;3.67;3.13;;;11.70;99.90;;;;;;5030551;28;20219;-48
2021/10/24 10:51:18;;;;;;;3.08;2.30;;;11.90;99.90;;;;;;5024841;28;20380;-46
2021/10/24 10:53:45;;;;;;;6.63;3.17;;;11.80;99.90;;;;;;5020053;28;20407;-50
2021/10/24 10:56:14;;;;;;;3.10;2.15;;;11.70;99.90;;;;;;5022078;28;20204;-48
2021/10/24 10:59:01;;;;;;;6.15;1.92;;;11.90;99.90;;;;;;5022158;28;20232;-49
2021/10/24 11:01:36;;;;;;;5.35;2.35;;;11.80;99.90;;;;;;5012128;28;20208;-48
2021/10/24 11:04:22;;;;;;;5.75;2.72;;;11.90;99.90;;;;;;5020163;28;20208;-50
2021/10/24 11:06:54;;;;;;;7.10;2.92;;;11.90;99.90;;;;;;5029481;28;20422;-50
2021/10/24 11:09:37;;;;;;;4.07;2.20;;;12.00;99.90;;;;;;5017069;28;20304;-48
2021/10/24 11:12:08;;;;;;;6.38;2.45;;;11.90;99.90;;;;;;5016370;28;20223;-48
2021/10/24 11:14:35;;;;;;;2.05;1.95;;;11.80;99.90;;;;;;5030206;28;20207;-46
2021/10/24 11:17:02;;;;;;;2.78;1.75;;;11.80;99.90;;;;;;5024708;28;20206;-46
2021/10/24 11:19:31;;;;;;;2.55;1.60;;;11.80;99.90;;;;;;5012983;28;20238;-51
2021/10/24 11:22:00;;;;;;;3.85;2.05;;;11.80;99.90;;;;;;5004334;28;20208;-44
2021/10/24 11:24:33;;;;;;;3.90;2.28;;;12.00;99.90;;;;;;5004245;28;20208;-51
2021/10/24 11:27:01;;;;;;;2.47;1.90;;;12.10;99.90;;;;;;5031794;28;20278;-53
2021/10/24 11:29:47;;;;;;;2.47;2.25;;;11.90;99.90;;;;;;5018245;28;20229;-45
2021/10/24 11:32:34;;;;;;;2.40;1.70;;;11.90;99.90;;;;;;5013623;28;20242;-53
2021/10/24 11:35:14;;;;;;;4.05;2.63;;;11.90;99.90;;;;;;5034289;28;20230;-48
2021/10/24 11:37:50;;;;;;;6.50;2.85;;;11.90;99.90;;;;;;5034406;28;20202;-49
2021/10/24 11:40:37;;;;;;;3.25;2.10;;;11.90;99.90;;;;;;5029877;28;20202;-49
2021/10/24 11:43:15;;;;;;;6.22;2.00;;;11.80;99.90;;;;;;5011545;28;20207;-54
2021/10/24 11:45:47;;;;;;;5.70;2.72;;;11.80;99.90;;;;;;5016989;28;20211;-53
2021/10/24 11:48:18;;;;;;;2.40;2.20;;;11.90;99.90;;;;;;5036669;28;20238;-50
2021/10/24 11:51:10;;;;;;;3.25;2.13;;;12.10;99.90;;;;;;5024324;28;20274;-51
2021/10/24 11:53:39;;;;;;;3.55;2.50;;;12.00;99.90;;;;;;5007788;28;20695;-47
2021/10/24 11:56:13;;;;;;;5.80;2.38;;;11.90;99.90;;;;;;5019780;28;20199;-49
2021/10/24 12:01:23;;;;;;;3.58;2.40;;;11.80;99.90;;;;;;5015512;28;20321;-50
2021/10/24 12:03:57;;;;;;;5.40;2.58;;;11.80;99.90;;;;;;5011691;28;20196;-55
2021/10/24 12:06:50;;;;;;;3.05;2.20;;;11.90;99.90;;;;;;5018039;28;20214;-51
2021/10/24 12:09:35;;;;;;;5.75;2.17;;;12.10;99.90;;;;;;5016810;28;20254;-46
2021/10/24 12:12:10;;;;;;;2.78;1.90;;;12.20;99.90;;;;;;5032304;28;20231;-50
2021/10/24 12:15:02;;;;;;;4.88;1.70;;;12.10;99.90;;;;;;5026862;28;20199;-50
2021/10/24 12:17:33;;;;;;;2.25;1.92;;;12.20;99.90;;;;;;5018771;28;20461;-45
2021/10/24 12:20:25;;;;;;;7.05;2.80;;;12.20;99.90;;;;;;5012770;28;20272;-50
2021/10/24 12:22:58;;;;;;;7.55;2.88;;;12.20;99.90;;;;;;5009405;28;20222;-45
2021/10/24 12:25:38;;;;;;;4.38;2.42;;;12.20;99.90;;;;;;5004837;28;20213;-50
2021/10/24 12:28:20;;;;;;;5.95;2.20;;;12.40;99.90;;;;;;5013494;28;20269;-49
2021/10/24 12:31:01;;;;;;;5.53;2.53;;;12.40;99.90;;;;;;5020195;28;20286;-50
2021/10/24 12:33:30;;;;;;;3.75;2.22;;;12.40;99.90;;;;;;5028168;28;20239;-46
2021/10/24 12:36:00;;;;;;;1.90;1.48;;;12.40;99.90;;;;;;5024120;28;20258;-49
2021/10/24 12:38:47;;;;;;;3.42;1.35;;;12.40;99.90;;;;;;5020273;28;20566;-48
2021/10/24 12:41:31;;;;;;;2.67;1.45;;;12.30;99.90;;;;;;5023848;28;20433;-46
2021/10/24 12:43:58;;;;;;;3.17;1.63;;;12.50;99.90;;;;;;5018683;28;20601;-51
2021/10/24 12:46:28;;;;;;;2.22;1.50;;;12.70;99.90;;;;;;5021123;28;20234;-52
2021/10/24 12:48:56;;;;;;;2.40;2.20;;;12.80;99.90;;;;;;5029484;28;20219;-48
2021/10/24 12:51:30;;;;;;;2.80;1.67;;;12.80;99.90;;;;;;5019931;28;20260;-45
2021/10/24 12:54:00;;;;;;;3.45;2.50;;;12.70;99.90;;;;;;5026909;28;20745;-47
2021/10/24 12:56:28;;;;;;;1.60;1.48;;;12.60;99.90;;;;;;5019774;28;20204;-50
2021/10/24 12:58:56;;;;;;;4.93;1.85;;;12.40;99.90;;;;;;5023355;28;20227;-48
2021/10/24 13:01:28;;;;;;;10.50;3.08;;;12.40;99.90;;;;;;5020134;28;20243;-48